Terminal Aerodrome Forecast
Issued by NWS

Home | Current Version | Previous Version | Text Only | Print | Product List | Glossary On
Versions: 1 2 3 4 5 6 7 8 9 10 11 12 13 14 15 16 17 18 19 20
389
FTUS44 KLZK 251120
TAFBPK
TAF
KBPK 251120Z 2512/2612 25005KT P6SM VCTS BKN025CB OVC040
      TEMPO 2512/2514 VRB10G25KT 4SM TSRA BKN015 OVC025CB
     FM251800 16010KT P6SM SCT025 BKN040
     FM260600 VRB06KT 4SM BR BKN010 OVC025
     FM261000 VRB06KT 4SM BR BKN005 OVC010=

USA.gov is the U.S. government's official web portal to all federal, state and local government web resources and services.